Time;durP1;ratioP1;P1;durP2;ratioP2;P2;SDS_P1;SDS_P2;PMS_P1;PMS_P2;Temp;Humidity;BMP_temperature;BMP_pressure;BME280_temperature;BME280_humidity;BME280_pressure;Samples;Min_cycle;Max_cycle;Signal;HPM_P1;HPM_P2
2023/09/04 00:00:35;;;;;;;12.52;7.57;;;;;;;15.36;78.26;102984.88;7393059;19;20039;-61
2023/09/04 00:03:03;;;;;;;12.98;8.05;;;;;;;15.36;78.30;102984.88;7393688;19;20019;-61
2023/09/04 00:05:36;;;;;;;11.18;7.60;;;;;;;15.57;77.58;102980.13;7392474;19;20010;-60
2023/09/04 00:08:04;;;;;;;;;;;;;;;15.54;76.90;102977.63;7393325;19;20445;-61
2023/09/04 00:10:30;;;;;;;12.20;6.97;;;;;;;15.62;76.79;102974.50;7397451;19;19923;-62
2023/09/04 00:12:58;;;;;;;10.38;6.90;;;;;;;15.70;76.37;102978.47;7394390;19;20026;-61
2023/09/04 00:15:25;;;;;;;11.80;7.35;;;;;;;15.75;75.64;102975.50;7393235;19;20027;-60
2023/09/04 00:17:53;;;;;;;13.52;7.43;;;;;;;15.77;75.52;102977.13;7395329;19;20082;-61
2023/09/04 00:20:20;;;;;;;10.30;6.82;;;;;;;15.80;75.55;102976.97;7394227;19;20374;-60
2023/09/04 00:22:47;;;;;;;10.95;7.05;;;;;;;15.76;75.40;102980.78;7393965;19;20492;-61
2023/09/04 00:25:15;;;;;;;12.52;7.30;;;;;;;15.70;75.25;102973.13;7391909;19;20364;-61
2023/09/04 00:27:42;;;;;;;12.32;7.65;;;;;;;15.55;75.99;102966.84;7393858;19;20029;-61
2023/09/04 00:30:10;;;;;;;11.88;7.57;;;;;;;15.59;76.07;102968.38;7394267;19;20015;-61
2023/09/04 00:32:38;;;;;;;10.88;7.03;;;;;;;15.56;75.97;102968.53;7393955;19;20029;-61
2023/09/04 00:35:07;;;;;;;12.30;7.35;;;;;;;15.60;75.71;102964.75;7393688;19;20122;-61
2023/09/04 00:37:34;;;;;;;11.43;7.07;;;;;;;15.62;75.68;102964.66;7395389;19;20022;-61
2023/09/04 00:40:05;;;;;;;10.63;7.00;;;;;;;15.65;75.27;102967.19;7395380;19;20014;-61
2023/09/04 00:42:33;;;;;;;11.60;7.15;;;;;;;15.59;75.27;102959.50;7393997;19;20070;-61
2023/09/04 00:45:01;;;;;;;10.35;6.90;;;;;;;15.63;75.21;102970.88;7394801;19;20015;-61
2023/09/04 00:47:29;;;;;;;10.70;7.10;;;;;;;15.53;75.28;102971.44;7395569;19;20037;-61
2023/09/04 00:49:57;;;;;;;11.52;7.07;;;;;;;15.21;76.20;102973.28;7391190;19;20022;-61
2023/09/04 00:52:25;;;;;;;12.13;7.68;;;;;;;15.02;76.99;102962.81;7391182;19;20022;-62
2023/09/04 00:54:54;;;;;;;12.32;7.75;;;;;;;14.97;77.55;102966.69;7389351;19;20042;-61
2023/09/04 00:57:22;;;;;;;12.68;7.57;;;;;;;14.91;77.69;102967.88;7392851;19;20074;-63
2023/09/04 00:59:49;;;;;;;12.48;7.07;;;;;;;15.03;77.54;102964.56;7391999;19;20024;-62
2023/09/04 01:02:18;;;;;;;11.75;7.20;;;;;;;15.23;76.56;102957.19;7392165;19;20031;-62
2023/09/04 01:04:46;;;;;;;12.63;7.40;;;;;;;15.21;76.04;102957.28;7387964;19;20031;-61
2023/09/04 01:07:13;;;;;;;10.80;6.72;;;;;;;14.99;76.89;102962.97;7390580;19;20026;-61
2023/09/04 01:09:41;;;;;;;11.60;6.97;;;;;;;14.83;77.75;102957.66;7390919;19;20372;-61
2023/09/04 01:12:21;;;;;;;10.38;6.90;;;;;;;15.07;77.09;102965.22;7389876;19;20103;-61
2023/09/04 01:14:54;;;;;;;10.57;6.82;;;;;;;15.22;76.37;102979.47;7388306;19;20023;-61
2023/09/04 01:17:23;;;;;;;10.75;6.63;;;;;;;15.31;75.91;102979.81;7390363;19;20024;-61
2023/09/04 01:19:50;;;;;;;12.65;7.10;;;;;;;14.98;76.72;102977.28;7389489;19;20015;-61
2023/09/04 01:22:18;;;;;;;11.02;6.90;;;;;;;15.11;76.11;102983.66;7391774;19;20078;-61
2023/09/04 01:24:46;;;;;;;13.30;6.85;;;;;;;15.25;75.30;102982.84;7389172;19;20350;-62
2023/09/04 01:27:31;;;;;;;11.05;6.68;;;;;;;15.35;74.21;102978.69;7391971;19;20006;-62
2023/09/04 01:30:08;;;;;;;10.48;6.28;;;;;;;15.23;74.76;102982.09;7390367;19;20020;-61
2023/09/04 01:32:51;;;;;;;12.07;6.40;;;;;;;15.18;74.48;102984.13;7389223;19;20694;-61
2023/09/04 01:35:22;;;;;;;10.82;6.70;;;;;;;15.23;74.01;102975.88;7390095;19;20015;-61
2023/09/04 01:37:49;;;;;;;12.35;7.50;;;;;;;14.93;74.96;102974.00;7391646;19;20011;-61
2023/09/04 01:40:17;;;;;;;11.40;7.28;;;;;;;14.74;75.92;102968.00;7390344;19;20014;-61
2023/09/04 01:42:45;;;;;;;12.73;7.50;;;;;;;14.96;75.49;102967.66;7388823;19;20026;-60
2023/09/04 01:45:13;;;;;;;11.85;7.10;;;;;;;14.80;75.67;102962.28;7390616;19;20499;-61
2023/09/04 01:47:40;;;;;;;13.88;7.10;;;;;;;14.51;76.83;102962.13;7391738;19;20042;-61
2023/09/04 01:50:08;;;;;;;9.57;6.07;;;;;;;14.52;77.23;102962.97;7390721;19;20018;-61
2023/09/04 01:52:35;;;;;;;11.75;7.00;;;;;;;14.65;76.84;102964.00;7391476;19;20417;-61
2023/09/04 01:55:03;;;;;;;11.45;6.55;;;;;;;14.86;75.71;102960.16;7390767;19;20038;-61
2023/09/04 01:57:31;;;;;;;10.25;6.88;;;;;;;14.95;74.85;102963.25;7391024;19;20019;-61
2023/09/04 01:59:58;;;;;;;11.90;6.80;;;;;;;14.97;74.15;102964.03;7391649;19;20042;-61
2023/09/04 02:02:26;;;;;;;10.88;6.20;;;;;;;15.03;73.75;102958.31;7388365;19;20035;-61
2023/09/04 02:04:53;;;;;;;10.07;6.20;;;;;;;15.03;73.67;102961.88;7387644;19;20082;-61
2023/09/04 02:07:21;;;;;;;11.43;6.38;;;;;;;14.98;73.73;102958.59;7390604;19;20019;-61
2023/09/04 02:09:48;;;;;;;10.65;6.43;;;;;;;14.96;74.17;102955.16;7390485;19;20094;-61
2023/09/04 02:12:16;;;;;;;9.63;6.00;;;;;;;14.94;74.15;102961.53;7390108;19;20499;-61
2023/09/04 02:14:43;;;;;;;10.35;6.35;;;;;;;14.67;74.76;102956.78;7386010;19;20019;-61
2023/09/04 02:17:12;;;;;;;10.48;6.07;;;;;;;14.66;75.09;102960.41;7390412;19;20022;-60
2023/09/04 02:19:39;;;;;;;10.10;5.65;;;;;;;14.77;74.31;102959.81;7389900;19;20015;-61
2023/09/04 02:22:07;;;;;;;12.40;6.22;;;;;;;14.80;73.98;102973.81;7388853;19;20018;-61
2023/09/04 02:24:34;;;;;;;11.18;6.28;;;;;;;14.86;73.49;102964.63;7387463;19;20014;-61
2023/09/04 02:27:02;;;;;;;10.75;6.15;;;;;;;14.46;75.56;102968.59;7390816;19;20015;-61
2023/09/04 02:29:29;;;;;;;11.27;6.72;;;;;;;14.57;75.15;102977.75;7389442;19;20018;-61
2023/09/04 02:31:57;;;;;;;10.85;6.38;;;;;;;14.42;75.77;102973.25;7396850;19;20039;-61
2023/09/04 02:34:24;;;;;;;10.25;5.80;;;;;;;14.60;75.26;102971.41;7394575;19;20023;-61
2023/09/04 02:36:51;;;;;;;9.82;5.90;;;;;;;14.68;74.74;102966.50;7395197;19;20088;-63
2023/09/04 02:39:19;;;;;;;11.43;6.40;;;;;;;14.63;74.50;102964.09;7396764;19;20031;-63
2023/09/04 02:41:46;;;;;;;10.30;6.00;;;;;;;14.53;75.27;102962.03;7397169;19;20085;-63
2023/09/04 02:44:13;;;;;;;11.00;6.57;;;;;;;14.40;75.44;102961.81;7393992;19;20508;-63
2023/09/04 02:46:41;;;;;;;8.82;5.82;;;;;;;14.26;75.83;102959.03;7392497;19;20036;-63
2023/09/04 02:49:08;;;;;;;8.95;5.75;;;;;;;14.17;76.64;102959.53;7396215;19;20018;-62
2023/09/04 02:51:36;;;;;;;12.82;6.60;;;;;;;14.06;77.22;102958.28;7394661;19;20018;-62
2023/09/04 02:54:03;;;;;;;11.90;6.25;;;;;;;14.12;77.25;102960.66;7392181;19;20584;-62
2023/09/04 02:56:31;;;;;;;12.27;6.53;;;;;;;14.13;77.03;102948.19;7396385;19;20088;-62
2023/09/04 02:58:58;;;;;;;9.88;6.28;;;;;;;14.09;77.20;102955.47;7394670;19;20006;-62
2023/09/04 03:01:26;;;;;;;10.77;6.03;;;;;;;14.36;76.19;102957.59;7394417;19;20022;-63
2023/09/04 03:03:53;;;;;;;10.00;6.00;;;;;;;14.46;75.85;102949.94;7394389;19;20019;-63
2023/09/04 03:06:21;;;;;;;10.82;5.90;;;;;;;14.52;75.34;102946.97;7393756;19;20014;-60
2023/09/04 03:08:48;;;;;;;10.65;5.20;;;;;;;14.50;75.20;102933.75;7395962;19;20364;-60
2023/09/04 03:11:16;;;;;;;10.05;5.60;;;;;;;14.56;74.77;102946.72;7394472;19;20106;-60
2023/09/04 03:13:43;;;;;;;10.52;4.90;;;;;;;14.57;74.34;102944.91;7392819;19;20019;-60
2023/09/04 03:16:10;;;;;;;8.35;5.13;;;;;;;14.51;74.21;102935.47;7394656;19;20445;-60
2023/09/04 03:18:38;;;;;;;10.43;5.05;;;;;;;14.39;74.35;102936.09;7390668;19;20029;-60
2023/09/04 03:21:05;;;;;;;9.38;5.50;;;;;;;14.37;74.11;102941.50;7393474;19;20365;-59
2023/09/04 03:23:33;;;;;;;8.30;5.35;;;;;;;14.32;74.24;102937.38;7390769;19;20027;-60
2023/09/04 03:26:00;;;;;;;9.20;4.63;;;;;;;14.36;73.99;102946.94;7390509;19;20022;-59
2023/09/04 03:28:28;;;;;;;9.18;4.75;;;;;;;14.35;73.93;102945.22;7393989;19;20018;-59
2023/09/04 03:30:55;;;;;;;8.05;4.35;;;;;;;14.41;73.92;102944.00;7394568;19;20038;-60
2023/09/04 03:33:23;;;;;;;7.70;4.18;;;;;;;14.42;73.72;102938.59;7393927;19;20030;-60
2023/09/04 03:35:50;;;;;;;8.38;4.30;;;;;;;14.35;73.66;102940.75;7395262;19;20429;-60
2023/09/04 03:38:19;;;;;;;9.32;5.35;;;;;;;13.94;75.35;102942.09;7394626;19;20026;-59
2023/09/04 03:40:46;;;;;;;8.18;4.78;;;;;;;14.03;75.38;102945.13;7394926;19;20089;-59
2023/09/04 03:43:14;;;;;;;7.30;4.50;;;;;;;14.20;74.68;102946.91;7393417;19;20350;-60
2023/09/04 03:45:41;;;;;;;9.25;5.38;;;;;;;13.88;75.08;102940.59;7393142;19;20022;-60
2023/09/04 03:48:08;;;;;;;9.23;5.13;;;;;;;13.91;75.39;102948.44;7394433;19;20078;-60
2023/09/04 03:50:36;;;;;;;9.25;5.03;;;;;;;14.05;74.42;102945.06;7393205;19;20034;-59
2023/09/04 03:53:04;;;;;;;7.68;4.55;;;;;;;14.09;73.48;102946.63;7392835;19;20034;-60
2023/09/04 03:55:32;;;;;;;8.82;5.03;;;;;;;13.90;73.90;102944.06;7392752;19;20094;-62
2023/09/04 03:57:59;;;;;;;8.82;4.60;;;;;;;13.95;73.91;102949.16;7394565;19;20015;-61
2023/09/04 04:00:26;;;;;;;10.80;4.82;;;;;;;14.06;73.57;102952.09;7394176;19;20015;-60
2023/09/04 04:02:54;;;;;;;12.68;5.15;;;;;;;14.10;73.47;102951.00;7392895;19;20049;-63
2023/09/04 04:05:21;;;;;;;7.97;4.75;;;;;;;13.96;73.72;102948.19;7393183;19;20369;-62
2023/09/04 04:07:50;;;;;;;9.20;5.00;;;;;;;13.96;74.16;102954.38;7394311;19;20082;-62
2023/09/04 04:10:17;;;;;;;8.95;5.18;;;;;;;14.00;73.83;102949.75;7394650;19;20019;-62
2023/09/04 04:12:46;;;;;;;8.95;5.00;;;;;;;14.08;73.34;102948.44;7391302;19;20021;-61
2023/09/04 04:15:13;;;;;;;7.60;4.60;;;;;;;14.03;73.40;102950.47;7392214;19;20535;-61
2023/09/04 04:17:41;;;;;;;8.48;4.82;;;;;;;14.02;73.53;102959.41;7393590;19;20087;-61
2023/09/04 04:20:12;;;;;;;10.18;5.20;;;;;;;13.79;74.11;102957.94;7393331;19;20020;-61
2023/09/04 04:22:41;;;;;;;9.43;4.93;;;;;;;13.73;75.19;102965.38;7392553;19;20475;-61
2023/09/04 04:25:10;;;;;;;7.82;4.47;;;;;;;13.93;74.22;102959.00;7392688;19;20011;-61
2023/09/04 04:27:38;;;;;;;7.90;4.60;;;;;;;13.97;73.82;102956.13;7392098;19;20011;-61
2023/09/04 04:30:08;;;;;;;7.93;4.22;;;;;;;13.98;73.84;102964.97;7393085;19;20019;-61
2023/09/04 04:32:37;;;;;;;8.23;4.50;;;;;;;13.76;74.43;102974.06;7392997;19;20030;-61
2023/09/04 04:35:05;;;;;;;8.40;4.50;;;;;;;13.69;75.38;102975.31;7392938;19;20033;-62
2023/09/04 04:37:33;;;;;;;8.57;4.95;;;;;;;13.88;74.43;102976.09;7393265;19;20045;-61
2023/09/04 04:40:03;;;;;;;8.93;4.32;;;;;;;13.91;74.35;102972.41;7393404;19;20403;-61
2023/09/04 04:42:30;;;;;;;8.27;4.10;;;;;;;13.87;74.34;102968.19;7393340;19;20022;-61
2023/09/04 04:44:58;;;;;;;9.35;4.25;;;;;;;13.89;74.01;102967.19;7392235;19;20346;-61
2023/09/04 04:47:25;;;;;;;7.57;3.92;;;;;;;13.92;73.92;102962.63;7391347;19;20082;-61
2023/09/04 04:49:52;;;;;;;6.80;3.45;;;;;;;13.99;73.66;102972.88;7392949;19;20039;-61
2023/09/04 04:52:20;;;;;;;6.40;3.60;;;;;;;13.98;73.53;102972.97;7390975;19;20047;-61
2023/09/04 04:54:47;;;;;;;7.03;3.47;;;;;;;13.91;73.58;102980.41;7390839;19;20120;-60
2023/09/04 04:57:16;;;;;;;6.70;3.63;;;;;;;13.87;73.35;102976.19;7392877;19;20074;-60
2023/09/04 04:59:43;;;;;;;7.13;3.53;;;;;;;13.85;73.13;102978.94;7393143;19;20085;-60
2023/09/04 05:02:10;;;;;;;8.27;3.92;;;;;;;13.88;72.70;102988.56;7392716;19;20011;-62
2023/09/04 05:04:44;;;;;;;9.85;4.80;;;;;;;13.37;74.79;102971.63;7389771;19;20487;-61
2023/09/04 05:07:12;;;;;;;9.85;4.57;;;;;;;13.36;75.16;102970.78;7390262;19;20018;-61
2023/09/04 05:09:39;;;;;;;5.82;3.50;;;;;;;13.69;73.91;102971.81;7391956;19;20017;-61
2023/09/04 05:12:07;;;;;;;6.82;3.33;;;;;;;13.83;73.36;102961.31;7392103;19;20042;-61
2023/09/04 05:14:34;;;;;;;6.15;3.30;;;;;;;13.87;72.96;102963.72;7387427;19;20029;-62
2023/09/04 05:17:02;;;;;;;6.72;3.35;;;;;;;13.76;73.29;102967.88;7389854;19;20086;-62
2023/09/04 05:19:29;;;;;;;8.18;3.42;;;;;;;13.47;74.56;102972.03;7391593;19;20024;-62
2023/09/04 05:21:56;;;;;;;7.25;3.40;;;;;;;13.33;75.56;102964.75;7391741;19;20025;-61
2023/09/04 05:24:24;;;;;;;7.00;3.22;;;;;;;13.27;76.24;102962.38;7387834;19;20018;-61
2023/09/04 05:26:52;;;;;;;7.88;3.13;;;;;;;13.25;76.43;102957.16;7390283;19;20014;-62
2023/09/04 05:29:19;;;;;;;7.03;3.40;;;;;;;13.21;76.29;102963.53;7390923;19;20042;-62
2023/09/04 05:31:51;;;;;;;5.80;3.28;;;;;;;13.21;76.78;102960.88;7391034;19;20666;-63
2023/09/04 05:34:19;;;;;;;4.85;2.80;;;;;;;13.35;76.20;102966.38;7390053;19;20015;-63
2023/09/04 05:36:46;;;;;;;5.00;2.50;;;;;;;13.31;76.70;102963.94;7390997;19;20018;-61
2023/09/04 05:39:14;;;;;;;7.40;3.25;;;;;;;13.29;76.77;102968.50;7390875;19;20093;-61
2023/09/04 05:41:42;;;;;;;6.30;3.33;;;;;;;13.30;77.46;102959.56;7391139;19;20082;-62
2023/09/04 05:44:11;;;;;;;7.28;3.10;;;;;;;13.33;77.53;102968.25;7389162;19;20472;-62
2023/09/04 05:46:38;;;;;;;5.38;3.40;;;;;;;13.37;76.93;102972.50;7390297;19;20027;-62
2023/09/04 05:49:06;;;;;;;5.57;3.17;;;;;;;13.52;76.99;102973.53;7390769;19;20019;-62
2023/09/04 05:51:33;;;;;;;5.82;2.95;;;;;;;13.60;77.00;102975.81;7391429;19;20018;-62
2023/09/04 05:54:00;;;;;;;7.50;3.80;;;;;;;13.59;77.44;102974.94;7390149;19;20018;-62
2023/09/04 05:56:28;;;;;;;5.22;3.25;;;;;;;13.72;77.50;102983.16;7391688;19;20022;-61
2023/09/04 05:58:56;;;;;;;5.18;2.80;;;;;;;13.69;77.74;102980.66;7391742;19;20011;-61
2023/09/04 06:01:24;;;;;;;6.90;3.80;;;;;;;13.73;77.69;102979.53;7392249;19;20087;-61
2023/09/04 06:03:51;;;;;;;8.65;3.17;;;;;;;13.81;78.23;102987.16;7390054;19;20015;-61
2023/09/04 06:06:19;;;;;;;7.20;3.35;;;;;;;14.01;77.48;102997.66;7394418;19;20018;-61
2023/09/04 06:08:46;;;;;;;8.77;3.45;;;;;;;14.07;77.67;102999.13;7399997;19;20102;-61
2023/09/04 06:11:14;;;;;;;8.38;3.47;;;;;;;14.09;77.57;102989.25;7395712;19;20087;-61
2023/09/04 06:13:41;;;;;;;6.53;3.80;;;;;;;14.14;78.25;102993.38;7396287;19;20025;-62
2023/09/04 06:16:09;;;;;;;7.05;3.47;;;;;;;14.22;78.01;102992.13;7398870;19;20483;-63
2023/09/04 06:18:37;;;;;;;7.72;4.00;;;;;;;14.30;78.35;102995.22;7397001;19;20022;-62
2023/09/04 06:21:04;;;;;;;8.23;4.18;;;;;;;14.38;78.57;103003.69;7399843;19;20044;-61
2023/09/04 06:23:32;;;;;;;10.80;4.57;;;;;;;14.41;78.32;102990.19;7394590;19;20102;-61
2023/09/04 06:26:02;;;;;;;7.65;3.92;;;;;;;14.54;78.23;102995.78;7397314;19;20014;-62
2023/09/04 06:28:30;;;;;;;7.55;3.80;;;;;;;14.64;78.24;102991.63;7397517;19;20019;-62
2023/09/04 06:30:57;;;;;;;6.10;3.50;;;;;;;14.82;77.58;102992.44;7396909;19;20025;-62
2023/09/04 06:33:25;;;;;;;7.80;3.60;;;;;;;14.87;77.57;102987.69;7395668;19;20019;-62
2023/09/04 06:35:56;;;;;;;8.13;3.72;;;;;;;15.01;77.45;102995.78;7396823;19;20025;-62
2023/09/04 06:38:24;;;;;;;8.63;3.70;;;;;;;15.09;77.50;102995.34;7397522;19;20018;-62
2023/09/04 06:40:57;;;;;;;7.05;3.70;;;;;;;15.19;77.25;103001.91;7396828;19;20031;-62
2023/09/04 06:43:28;;;;;;;8.48;4.10;;;;;;;15.26;77.17;102997.94;7395461;19;20074;-62
2023/09/04 06:45:55;;;;;;;6.82;4.00;;;;;;;15.32;77.23;102996.69;7396842;19;20011;-62
2023/09/04 06:48:22;;;;;;;8.52;4.32;;;;;;;15.40;77.25;102988.25;7397009;19;20479;-62
2023/09/04 06:50:51;;;;;;;10.10;4.70;;;;;;;15.50;76.90;102998.31;7396720;19;20022;-62
2023/09/04 06:53:18;;;;;;;8.88;4.80;;;;;;;15.56;76.83;102997.06;7394926;19;20508;-62
2023/09/04 06:55:49;;;;;;;9.20;4.40;;;;;;;15.63;76.91;102998.44;7396809;19;20042;-62
2023/09/04 06:58:17;;;;;;;11.77;5.45;;;;;;;15.67;76.97;102999.16;7396781;19;20015;-62
2023/09/04 07:00:44;;;;;;;8.32;4.63;;;;;;;15.66;77.33;102994.75;7394914;19;20587;-62
2023/09/04 07:03:12;;;;;;;9.40;4.20;;;;;;;15.73;77.56;102998.78;7393916;19;20040;-62
2023/09/04 07:05:39;;;;;;;9.00;4.72;;;;;;;15.83;77.31;103003.50;7396656;19;20034;-62
2023/09/04 07:08:07;;;;;;;8.63;4.88;;;;;;;15.92;77.05;103003.91;7392540;19;20467;-62
2023/09/04 07:10:35;;;;;;;8.27;4.80;;;;;;;15.98;77.26;103004.38;7395306;19;20021;-62
2023/09/04 07:13:03;;;;;;;9.32;5.25;;;;;;;16.01;77.23;102997.97;7393469;19;20126;-62
2023/09/04 07:15:30;;;;;;;11.00;5.35;;;;;;;16.05;77.23;103000.38;7395222;19;20037;-62
2023/09/04 07:18:02;;;;;;;9.60;4.45;;;;;;;16.11;77.41;102993.81;7393998;19;20018;-62
2023/09/04 07:20:31;;;;;;;7.43;4.43;;;;;;;16.12;77.60;102998.19;7395874;19;20548;-62
2023/09/04 07:22:59;;;;;;;11.07;4.80;;;;;;;16.19;77.68;103001.34;7394553;19;20027;-62
2023/09/04 07:25:46;;;;;;;10.07;4.82;;;;;;;16.23;77.50;103002.88;7393823;19;20508;-62
2023/09/04 07:28:14;;;;;;;12.70;4.40;;;;;;;16.31;77.66;103004.13;7391641;19;20046;-62
2023/09/04 07:30:41;;;;;;;14.45;4.82;;;;;;;16.39;77.76;103000.97;7395340;19;20024;-62
2023/09/04 07:33:09;;;;;;;15.35;5.90;;;;;;;16.45;77.72;102999.75;7393795;19;20022;-62
2023/09/04 07:35:36;;;;;;;13.00;5.35;;;;;;;16.50;77.62;102992.28;7395199;19;20074;-62
2023/09/04 07:38:04;;;;;;;11.20;5.40;;;;;;;16.60;77.53;102998.78;7394883;19;20014;-62
2023/09/04 07:40:33;;;;;;;14.50;5.82;;;;;;;16.65;77.78;102996.66;7395244;19;20018;-62
2023/09/04 07:43:01;;;;;;;11.10;5.00;;;;;;;16.71;77.82;103003.41;7393481;19;20035;-62
2023/09/04 07:45:29;;;;;;;13.73;5.68;;;;;;;16.75;77.81;102995.16;7394275;19;20590;-62
2023/09/04 07:47:56;;;;;;;14.05;6.18;;;;;;;16.84;78.04;102995.53;7392013;19;20360;-62
2023/09/04 07:50:24;;;;;;;13.15;5.60;;;;;;;16.92;77.83;102993.22;7395566;19;20022;-63
2023/09/04 07:52:51;;;;;;;13.55;5.88;;;;;;;16.99;78.41;102997.22;7394102;19;20081;-62
2023/09/04 07:55:19;;;;;;;14.15;7.10;;;;;;;17.05;78.31;102991.44;7394378;19;20014;-62
2023/09/04 07:57:46;;;;;;;11.43;5.57;;;;;;;17.10;78.22;102993.84;7391219;19;20038;-62
2023/09/04 08:00:19;;;;;;;11.68;6.47;;;;;;;17.18;78.28;102988.84;7394337;19;20019;-62
2023/09/04 08:02:46;;;;;;;11.90;6.40;;;;;;;17.26;77.78;102989.19;7393139;19;20873;-62
2023/09/04 08:05:13;;;;;;;13.38;5.93;;;;;;;17.35;77.78;102983.19;7393490;19;20034;-62
2023/09/04 08:07:41;;;;;;;11.35;5.22;;;;;;;17.42;77.25;102984.50;7393417;19;20111;-62
2023/09/04 08:10:09;;;;;;;8.55;4.25;;;;;;;17.51;75.14;102983.03;7394236;19;20050;-62
2023/09/04 08:12:36;;;;;;;8.35;3.70;;;;;;;17.60;74.31;102984.25;7393491;19;20396;-61
2023/09/04 08:15:04;;;;;;;7.43;3.80;;;;;;;17.71;73.43;102990.59;7393645;19;20022;-62
2023/09/04 08:17:31;;;;;;;6.47;3.55;;;;;;;17.77;72.95;102990.19;7391865;19;20022;-62
2023/09/04 08:20:00;;;;;;;8.70;3.78;;;;;;;17.85;72.84;102986.97;7393433;19;20048;-62
2023/09/04 08:22:28;;;;;;;6.57;3.50;;;;;;;17.91;72.64;102988.41;7396875;19;20030;-62
2023/09/04 08:24:56;;;;;;;7.40;3.30;;;;;;;17.91;72.59;102993.75;7392862;19;20380;-62
2023/09/04 08:27:23;;;;;;;5.03;2.92;;;;;;;17.95;71.91;102987.22;7389889;19;20025;-62
2023/09/04 08:29:52;;;;;;;7.18;3.25;;;;;;;17.97;71.73;102993.31;7393004;19;20034;-62
2023/09/04 08:32:19;;;;;;;8.25;3.50;;;;;;;18.01;71.71;102992.16;7393201;19;20021;-62
2023/09/04 08:34:46;;;;;;;6.95;3.00;;;;;;;18.09;71.51;102986.25;7390693;19;20504;-62
2023/09/04 08:37:14;;;;;;;6.40;2.88;;;;;;;18.16;71.11;102991.09;7392686;19;20022;-62
2023/09/04 08:39:41;;;;;;;6.13;2.65;;;;;;;18.24;70.48;102991.41;7392504;19;20035;-61
2023/09/04 08:42:11;;;;;;;5.72;2.60;;;;;;;18.33;70.16;102994.41;7392527;19;20014;-61
2023/09/04 08:44:43;;;;;;;4.35;2.22;;;;;;;18.36;70.08;102991.50;7390898;19;20551;-61
2023/09/04 08:47:14;;;;;;;6.80;2.40;;;;;;;18.36;70.03;102995.03;7390197;19;20022;-62
2023/09/04 08:49:43;;;;;;;5.78;2.30;;;;;;;18.36;69.63;102995.03;7392362;19;20021;-62
2023/09/04 08:52:12;;;;;;;5.05;2.10;;;;;;;18.42;69.44;102991.06;7390716;19;20479;-62
2023/09/04 08:54:43;;;;;;;3.83;1.92;;;;;;;18.50;69.37;102997.56;7390582;19;20046;-62
2023/09/04 08:57:11;;;;;;;6.00;2.50;;;;;;;18.53;69.15;102993.81;7390522;19;20022;-62
2023/09/04 08:59:38;;;;;;;3.25;1.98;;;;;;;18.57;69.10;102986.41;7393384;19;20082;-62
2023/09/04 09:02:13;;;;;;;3.53;1.90;;;;;;;18.68;68.77;102990.03;7392803;19;20025;-62
2023/09/04 09:04:41;;;;;;;4.88;2.13;;;;;;;18.71;68.04;102989.84;7390258;19;20078;-62
2023/09/04 09:07:10;;;;;;;4.93;2.22;;;;;;;18.75;68.05;102991.34;7390922;19;20062;-62
2023/09/04 09:09:39;;;;;;;3.42;1.80;;;;;;;18.81;67.46;102992.75;7391799;19;20439;-62
2023/09/04 09:12:06;;;;;;;4.70;1.90;;;;;;;18.90;67.02;102991.19;7391600;19;20032;-62
2023/09/04 09:14:34;;;;;;;4.45;2.00;;;;;;;18.92;66.76;102987.41;7388270;19;20018;-62
2023/09/04 09:17:14;;;;;;;5.13;2.22;;;;;;;18.93;67.00;102982.94;7391290;19;20030;-62
2023/09/04 09:19:43;;;;;;;3.78;2.22;;;;;;;18.98;66.42;102980.75;7389982;19;20070;-62
2023/09/04 09:22:15;;;;;;;5.65;2.33;;;;;;;19.11;66.65;102983.38;7391213;19;20014;-62
2023/09/04 09:24:52;;;;;;;5.35;2.70;;;;;;;19.17;66.07;102980.25;7389932;19;20025;-62
2023/09/04 09:27:22;;;;;;;5.50;2.20;;;;;;;19.17;66.52;102974.88;7390859;19;20014;-62
2023/09/04 09:29:55;;;;;;;5.72;2.25;;;;;;;19.18;66.74;102969.38;7389364;19;20494;-62
2023/09/04 09:32:26;;;;;;;5.03;2.10;;;;;;;19.17;67.16;102964.13;7390216;19;20126;-62
2023/09/04 09:34:55;;;;;;;4.18;1.80;;;;;;;19.20;67.06;102969.28;7391024;19;20472;-62
2023/09/04 09:37:29;;;;;;;5.18;2.35;;;;;;;19.28;67.26;102961.50;7389370;19;20499;-63
2023/09/04 09:39:57;;;;;;;6.30;2.00;;;;;;;19.29;66.53;102962.34;7389438;19;20511;-62
2023/09/04 09:42:25;;;;;;;4.15;2.10;;;;;;;19.26;66.11;102960.72;7391486;19;20042;-63
2023/09/04 09:44:53;;;;;;;4.65;1.90;;;;;;;19.32;65.71;102959.44;7388623;19;20415;-63
2023/09/04 09:47:21;;;;;;;4.93;2.22;;;;;;;19.33;65.76;102959.31;7388990;19;20007;-62
2023/09/04 09:49:49;;;;;;;5.75;1.98;;;;;;;19.37;65.37;102954.56;7390080;19;20026;-62
2023/09/04 09:52:17;;;;;;;2.65;1.58;;;;;;;19.38;65.06;102953.56;7391198;19;20018;-62
2023/09/04 09:54:46;;;;;;;8.60;4.28;;;;;;;19.39;64.78;102947.25;7389055;19;20039;-62
2023/09/04 09:57:15;;;;;;;3.92;1.85;;;;;;;19.41;64.70;102943.44;7390747;19;20034;-63
2023/09/04 09:59:44;;;;;;;3.25;1.83;;;;;;;19.48;63.75;102955.44;7391260;19;20014;-63
2023/09/04 10:02:27;;;;;;;4.32;1.60;;;;;;;19.59;63.82;102945.72;7391172;19;20033;-62
2023/09/04 10:04:55;;;;;;;4.20;1.87;;;;;;;19.75;63.02;102945.41;7390945;19;20418;-63
2023/09/04 10:07:27;;;;;;;3.75;1.70;;;;;;;19.80;63.12;102948.59;7390306;19;20022;-63
2023/09/04 10:10:03;;;;;;;3.67;1.65;;;;;;;19.77;63.65;102938.09;7388413;19;20014;-62
2023/09/04 10:12:52;;;;;;;4.25;1.80;;;;;;;19.84;63.34;102942.00;7390008;19;20439;-62
2023/09/04 10:15:24;;;;;;;3.42;1.75;;;;;;;19.93;62.67;102941.28;7388955;19;20651;-62
2023/09/04 10:18:01;;;;;;;4.45;1.70;;;;;;;19.91;62.66;102935.16;7390577;19;20051;-63
2023/09/04 10:20:29;;;;;;;6.05;2.08;;;;;;;19.80;63.58;102929.75;7391614;19;20085;-63
2023/09/04 10:23:06;;;;;;;3.28;1.60;;;;;;;19.85;63.17;102922.22;7388958;19;20340;-63
2023/09/04 10:25:57;;;;;;;4.75;2.00;;;;;;;19.89;63.70;102924.53;7388782;19;20014;-63
2023/09/04 10:28:32;;;;;;;3.38;2.00;;;;;;;19.91;63.27;102921.72;7387090;19;20025;-63
2023/09/04 10:31:12;;;;;;;5.20;1.52;;;;;;;19.95;62.90;102918.66;7388218;19;20015;-61
2023/09/04 10:33:41;;;;;;;3.47;1.63;;;;;;;20.06;63.01;102915.13;7387853;19;20022;-62
2023/09/04 10:36:09;;;;;;;3.35;1.70;;;;;;;20.17;62.31;102916.97;7389195;19;20082;-62
2023/09/04 10:38:37;;;;;;;4.78;1.88;;;;;;;20.17;61.83;102915.13;7389495;19;20014;-63
2023/09/04 10:41:07;;;;;;;4.40;1.95;;;;;;;20.16;61.92;102909.88;7389088;19;20033;-62
2023/09/04 10:43:42;;;;;;;3.60;1.80;;;;;;;20.30;61.80;102911.44;7386834;19;20340;-62
2023/09/04 10:46:12;;;;;;;4.50;1.73;;;;;;;20.27;61.82;102911.72;7389045;19;20014;-63
2023/09/04 10:48:50;;;;;;;2.65;1.60;;;;;;;20.40;60.91;102905.19;7386092;19;20017;-62
2023/09/04 10:51:24;;;;;;;5.07;1.70;;;;;;;20.32;61.34;102902.25;7389591;19;20027;-62
2023/09/04 10:53:52;;;;;;;4.90;1.80;;;;;;;20.34;61.41;102894.09;7394115;19;20019;-62
2023/09/04 10:56:19;;;;;;;4.03;1.80;;;;;;;20.42;61.33;102900.56;7394536;19;20106;-62
2023/09/04 10:59:04;;;;;;;3.42;1.70;;;;;;;20.59;60.65;102893.81;7395955;19;20033;-62
2023/09/04 11:01:38;;;;;;;4.18;1.98;;;;;;;20.56;60.31;102896.75;7395773;19;20026;-62
2023/09/04 11:04:08;;;;;;;4.40;1.70;;;;;;;20.55;60.52;102881.56;7393109;19;20019;-63
2023/09/04 11:06:37;;;;;;;4.65;1.63;;;;;;;20.62;60.68;102884.63;7396069;19;20455;-62
2023/09/04 11:09:05;;;;;;;5.32;1.77;;;;;;;20.66;60.42;102881.56;7393864;19;20015;-62
2023/09/04 11:11:33;;;;;;;3.17;1.80;;;;;;;20.66;60.59;102884.25;7394902;19;20026;-62
2023/09/04 11:14:02;;;;;;;3.75;1.70;;;;;;;20.67;61.78;102879.72;7393469;19;20018;-62
2023/09/04 11:16:36;;;;;;;3.20;1.90;;;;;;;20.64;61.48;102870.06;7395448;19;20018;-62
2023/09/04 11:19:06;;;;;;;4.20;1.52;;;;;;;20.59;60.88;102871.41;7393482;19;20021;-62
2023/09/04 11:21:36;;;;;;;4.78;2.13;;;;;;;20.60;60.49;102859.66;7394020;19;20033;-62
2023/09/04 11:24:04;;;;;;;5.95;1.92;;;;;;;20.54;60.72;102860.19;7393049;19;20027;-62
2023/09/04 11:26:32;;;;;;;3.50;1.70;;;;;;;20.60;60.72;102865.03;7396915;19;20035;-62
2023/09/04 11:29:01;;;;;;;4.93;1.63;;;;;;;20.61;60.45;102864.94;7392943;19;20015;-62